sensor_id;sensor_type;location;lat;lon;timestamp;pressure;altitude;pressure_sealevel;temperature;humidity
62548;BME280;48602;45.192;5.722;2023-05-12T00:01:11;98862.78;;;12.80;83.91
62548;BME280;48602;45.192;5.722;2023-05-12T00:03:38;98854.84;;;12.80;84.10
62548;BME280;48602;45.192;5.722;2023-05-12T00:06:04;98861.84;;;12.81;84.20
62548;BME280;48602;45.192;5.722;2023-05-12T00:08:29;98857.41;;;12.81;84.60
62548;BME280;48602;45.192;5.722;2023-05-12T00:10:55;98858.19;;;12.83;84.54
62548;BME280;48602;45.192;5.722;2023-05-12T00:13:21;98853.75;;;12.84;84.22
62548;BME280;48602;45.192;5.722;2023-05-12T00:15:48;98855.38;;;12.86;84.49
62548;BME280;48602;45.192;5.722;2023-05-12T00:18:14;98847.34;;;12.88;84.56
62548;BME280;48602;45.192;5.722;2023-05-12T00:20:40;98844.72;;;12.88;84.00
62548;BME280;48602;45.192;5.722;2023-05-12T00:23:05;98846.50;;;12.87;84.41
62548;BME280;48602;45.192;5.722;2023-05-12T00:25:31;98845.56;;;12.88;84.03
62548;BME280;48602;45.192;5.722;2023-05-12T00:27:56;98835.72;;;12.90;84.26
62548;BME280;48602;45.192;5.722;2023-05-12T00:30:21;98842.72;;;12.91;83.79
62548;BME280;48602;45.192;5.722;2023-05-12T00:32:47;98846.16;;;12.93;83.39
62548;BME280;48602;45.192;5.722;2023-05-12T00:35:13;98819.63;;;12.95;83.49
62548;BME280;48602;45.192;5.722;2023-05-12T00:37:40;98835.50;;;12.95;83.88
62548;BME280;48602;45.192;5.722;2023-05-12T00:40:06;98830.03;;;12.98;83.64
62548;BME280;48602;45.192;5.722;2023-05-12T00:42:33;98830.88;;;12.99;83.76
62548;BME280;48602;45.192;5.722;2023-05-12T00:44:59;98837.81;;;13.01;84.01
62548;BME280;48602;45.192;5.722;2023-05-12T00:47:24;98831.59;;;13.02;84.25
62548;BME280;48602;45.192;5.722;2023-05-12T00:49:50;98826.97;;;13.06;84.25
62548;BME280;48602;45.192;5.722;2023-05-12T00:52:15;98821.69;;;13.06;84.35
62548;BME280;48602;45.192;5.722;2023-05-12T00:54:41;98820.75;;;13.07;84.08
62548;BME280;48602;45.192;5.722;2023-05-12T00:57:09;98818.94;;;13.07;84.31
62548;BME280;48602;45.192;5.722;2023-05-12T00:59:34;98820.66;;;13.08;84.18
62548;BME280;48602;45.192;5.722;2023-05-12T01:02:00;98815.28;;;13.10;84.25
62548;BME280;48602;45.192;5.722;2023-05-12T01:04:25;98810.91;;;13.09;83.52
62548;BME280;48602;45.192;5.722;2023-05-12T01:07:02;98816.13;;;13.10;83.70
62548;BME280;48602;45.192;5.722;2023-05-12T01:09:29;98816.03;;;13.12;83.45
62548;BME280;48602;45.192;5.722;2023-05-12T01:11:55;98815.03;;;13.14;82.95
62548;BME280;48602;45.192;5.722;2023-05-12T01:14:20;98813.25;;;13.15;82.95
62548;BME280;48602;45.192;5.722;2023-05-12T01:16:51;98807.97;;;13.15;83.45
62548;BME280;48602;45.192;5.722;2023-05-12T01:19:40;98810.63;;;13.15;83.80
62548;BME280;48602;45.192;5.722;2023-05-12T01:22:10;98810.66;;;13.13;83.96
62548;BME280;48602;45.192;5.722;2023-05-12T01:24:47;98809.72;;;13.14;84.32
62548;BME280;48602;45.192;5.722;2023-05-12T01:27:14;98812.38;;;13.14;84.47
62548;BME280;48602;45.192;5.722;2023-05-12T01:29:42;98799.22;;;13.13;84.63
62548;BME280;48602;45.192;5.722;2023-05-12T01:32:08;98812.47;;;13.13;84.83
62548;BME280;48602;45.192;5.722;2023-05-12T01:34:34;98807.25;;;13.11;82.55
62548;BME280;48602;45.192;5.722;2023-05-12T01:37:00;98802.13;;;13.08;84.04
62548;BME280;48602;45.192;5.722;2023-05-12T01:39:26;98804.25;;;13.02;83.11
62548;BME280;48602;45.192;5.722;2023-05-12T01:41:51;98800.06;;;12.98;83.59
62548;BME280;48602;45.192;5.722;2023-05-12T01:44:16;98806.31;;;12.97;84.19
62548;BME280;48602;45.192;5.722;2023-05-12T01:46:42;98804.50;;;12.97;84.18
62548;BME280;48602;45.192;5.722;2023-05-12T01:49:07;98809.97;;;12.94;84.28
62548;BME280;48602;45.192;5.722;2023-05-12T01:51:32;98802.09;;;12.92;83.90
62548;BME280;48602;45.192;5.722;2023-05-12T01:53:58;98803.91;;;12.92;84.24
62548;BME280;48602;45.192;5.722;2023-05-12T01:56:23;98808.34;;;12.91;83.31
62548;BME280;48602;45.192;5.722;2023-05-12T01:58:48;98803.31;;;12.87;83.51
62548;BME280;48602;45.192;5.722;2023-05-12T02:01:14;98805.09;;;12.86;83.92
62548;BME280;48602;45.192;5.722;2023-05-12T02:03:39;98803.25;;;12.88;84.66
62548;BME280;48602;45.192;5.722;2023-05-12T02:06:05;98806.75;;;12.89;84.55
62548;BME280;48602;45.192;5.722;2023-05-12T02:08:30;98807.69;;;12.88;84.04
62548;BME280;48602;45.192;5.722;2023-05-12T02:11:06;98797.94;;;12.88;84.37
62548;BME280;48602;45.192;5.722;2023-05-12T02:13:32;98803.25;;;12.88;84.67
62548;BME280;48602;45.192;5.722;2023-05-12T02:15:58;98804.19;;;12.87;84.76
62548;BME280;48602;45.192;5.722;2023-05-12T02:18:23;98804.09;;;12.89;84.40
62548;BME280;48602;45.192;5.722;2023-05-12T02:20:49;98805.03;;;12.88;84.76
62548;BME280;48602;45.192;5.722;2023-05-12T02:23:14;98806.81;;;12.87;85.19
62548;BME280;48602;45.192;5.722;2023-05-12T02:25:40;98800.69;;;12.87;84.82
62548;BME280;48602;45.192;5.722;2023-05-12T02:28:05;98805.97;;;12.87;84.82
62548;BME280;48602;45.192;5.722;2023-05-12T02:30:35;98800.84;;;12.84;84.61
62548;BME280;48602;45.192;5.722;2023-05-12T02:33:00;98798.34;;;12.81;85.26
62548;BME280;48602;45.192;5.722;2023-05-12T02:35:25;98794.94;;;12.79;85.40
62548;BME280;48602;45.192;5.722;2023-05-12T02:37:51;98801.06;;;12.79;85.53
62548;BME280;48602;45.192;5.722;2023-05-12T02:40:16;98792.72;;;12.71;84.47
62548;BME280;48602;45.192;5.722;2023-05-12T02:42:42;98788.59;;;12.66;83.26
62548;BME280;48602;45.192;5.722;2023-05-12T02:45:08;98790.38;;;12.65;84.36
62548;BME280;48602;45.192;5.722;2023-05-12T02:47:34;98787.03;;;12.62;84.00
62548;BME280;48602;45.192;5.722;2023-05-12T02:50:00;98787.91;;;12.62;84.20
62548;BME280;48602;45.192;5.722;2023-05-12T02:52:26;98794.13;;;12.61;83.16
62548;BME280;48602;45.192;5.722;2023-05-12T02:54:52;98784.47;;;12.60;83.31
62548;BME280;48602;45.192;5.722;2023-05-12T02:57:17;98790.53;;;12.62;82.89
62548;BME280;48602;45.192;5.722;2023-05-12T02:59:42;98788.75;;;12.63;83.91
62548;BME280;48602;45.192;5.722;2023-05-12T03:02:08;98787.22;;;12.58;84.47
62548;BME280;48602;45.192;5.722;2023-05-12T03:04:33;98787.22;;;12.58;84.49
62548;BME280;48602;45.192;5.722;2023-05-12T03:06:59;98786.19;;;12.61;84.07
62548;BME280;48602;45.192;5.722;2023-05-12T03:09:24;98785.19;;;12.64;84.69
62548;BME280;48602;45.192;5.722;2023-05-12T03:11:50;98780.97;;;12.59;84.38
62548;BME280;48602;45.192;5.722;2023-05-12T03:14:15;98777.56;;;12.57;84.13
62548;BME280;48602;45.192;5.722;2023-05-12T03:16:40;98773.25;;;12.56;85.13
62548;BME280;48602;45.192;5.722;2023-05-12T03:19:06;98776.81;;;12.55;83.84
62548;BME280;48602;45.192;5.722;2023-05-12T03:21:31;98772.47;;;12.54;83.07
62548;BME280;48602;45.192;5.722;2023-05-12T03:23:57;98771.53;;;12.55;82.98
62548;BME280;48602;45.192;5.722;2023-05-12T03:26:22;98772.28;;;12.57;82.46
62548;BME280;48602;45.192;5.722;2023-05-12T03:28:47;98758.31;;;12.55;82.06
62548;BME280;48602;45.192;5.722;2023-05-12T03:31:13;98772.38;;;12.56;82.44
62548;BME280;48602;45.192;5.722;2023-05-12T03:33:38;98771.63;;;12.54;82.34
62548;BME280;48602;45.192;5.722;2023-05-12T03:36:04;98767.09;;;12.56;82.08
62548;BME280;48602;45.192;5.722;2023-05-12T03:38:30;98758.97;;;12.59;82.74
62548;BME280;48602;45.192;5.722;2023-05-12T03:41:02;98765.03;;;12.61;83.42
62548;BME280;48602;45.192;5.722;2023-05-12T03:43:28;98756.31;;;12.59;83.61
62548;BME280;48602;45.192;5.722;2023-05-12T03:45:53;98758.97;;;12.59;84.08
62548;BME280;48602;45.192;5.722;2023-05-12T03:48:18;98759.91;;;12.58;84.22
62548;BME280;48602;45.192;5.722;2023-05-12T03:50:44;98757.38;;;12.56;82.04
62548;BME280;48602;45.192;5.722;2023-05-12T03:53:09;98761.13;;;12.52;81.47
62548;BME280;48602;45.192;5.722;2023-05-12T03:55:35;98754.97;;;12.52;81.83
62548;BME280;48602;45.192;5.722;2023-05-12T03:58:00;98755.81;;;12.52;82.98
62548;BME280;48602;45.192;5.722;2023-05-12T04:00:25;98753.25;;;12.51;83.45
62548;BME280;48602;45.192;5.722;2023-05-12T04:02:51;98753.25;;;12.51;84.05
62548;BME280;48602;45.192;5.722;2023-05-12T04:05:16;98747.13;;;12.50;83.09
62548;BME280;48602;45.192;5.722;2023-05-12T04:07:42;98751.56;;;12.50;82.16
62548;BME280;48602;45.192;5.722;2023-05-12T04:10:07;98747.97;;;12.51;83.08
62548;BME280;48602;45.192;5.722;2023-05-12T04:12:33;98744.56;;;12.49;83.70
62548;BME280;48602;45.192;5.722;2023-05-12T04:14:58;98746.34;;;12.48;82.01
62548;BME280;48602;45.192;5.722;2023-05-12T04:17:24;98759.72;;;12.45;81.83
62548;BME280;48602;45.192;5.722;2023-05-12T04:19:49;98759.09;;;12.40;81.33
62548;BME280;48602;45.192;5.722;2023-05-12T04:22:16;98748.94;;;12.33;81.33
62548;BME280;48602;45.192;5.722;2023-05-12T04:24:42;98761.53;;;12.28;81.42
62548;BME280;48602;45.192;5.722;2023-05-12T04:27:07;98753.88;;;12.23;81.68
62548;BME280;48602;45.192;5.722;2023-05-12T04:29:32;98768.97;;;12.21;83.02
62548;BME280;48602;45.192;5.722;2023-05-12T04:31:58;98764.47;;;12.23;83.78
62548;BME280;48602;45.192;5.722;2023-05-12T04:34:24;98770.41;;;12.27;83.99
62548;BME280;48602;45.192;5.722;2023-05-12T04:36:49;98770.34;;;12.28;85.10
62548;BME280;48602;45.192;5.722;2023-05-12T04:39:15;98771.13;;;12.30;84.10
62548;BME280;48602;45.192;5.722;2023-05-12T04:41:41;98770.88;;;12.35;84.41
62548;BME280;48602;45.192;5.722;2023-05-12T04:44:06;98777.59;;;12.40;85.00
62548;BME280;48602;45.192;5.722;2023-05-12T04:46:32;98770.44;;;12.42;83.22
62548;BME280;48602;45.192;5.722;2023-05-12T04:48:57;98770.44;;;12.42;82.94
62548;BME280;48602;45.192;5.722;2023-05-12T04:51:22;98776.53;;;12.44;83.21
62548;BME280;48602;45.192;5.722;2023-05-12T04:53:48;98778.94;;;12.49;83.62
62548;BME280;48602;45.192;5.722;2023-05-12T04:56:13;98780.41;;;12.54;84.46
62548;BME280;48602;45.192;5.722;2023-05-12T04:58:38;98782.84;;;12.57;83.95
62548;BME280;48602;45.192;5.722;2023-05-12T05:01:04;98791.41;;;12.63;84.08
62548;BME280;48602;45.192;5.722;2023-05-12T05:03:29;98799.09;;;12.67;84.25
62548;BME280;48602;45.192;5.722;2023-05-12T05:05:55;98801.50;;;12.72;84.30
62548;BME280;48602;45.192;5.722;2023-05-12T05:08:20;98802.34;;;12.72;84.40
62548;BME280;48602;45.192;5.722;2023-05-12T05:10:46;98803.97;;;12.75;84.93
62548;BME280;48602;45.192;5.722;2023-05-12T05:13:11;98804.66;;;12.78;84.73
62548;BME280;48602;45.192;5.722;2023-05-12T05:15:36;98799.13;;;12.83;84.82
62548;BME280;48602;45.192;5.722;2023-05-12T05:18:02;98809.47;;;12.87;84.79
62548;BME280;48602;45.192;5.722;2023-05-12T05:20:28;98803.03;;;12.91;84.55
62548;BME280;48602;45.192;5.722;2023-05-12T05:22:53;98811.69;;;12.95;84.66
62548;BME280;48602;45.192;5.722;2023-05-12T05:25:18;98807.00;;;13.00;84.63
62548;BME280;48602;45.192;5.722;2023-05-12T05:27:44;98814.69;;;13.05;84.07
62548;BME280;48602;45.192;5.722;2023-05-12T05:30:09;98814.69;;;13.05;83.90
62548;BME280;48602;45.192;5.722;2023-05-12T05:32:36;98817.13;;;13.08;83.94
62548;BME280;48602;45.192;5.722;2023-05-12T05:35:04;98814.34;;;13.11;82.88
62548;BME280;48602;45.192;5.722;2023-05-12T05:37:30;98814.25;;;13.12;82.00
62548;BME280;48602;45.192;5.722;2023-05-12T05:39:55;98815.09;;;13.13;81.65
62548;BME280;48602;45.192;5.722;2023-05-12T05:42:21;98814.03;;;13.17;81.77
62548;BME280;48602;45.192;5.722;2023-05-12T05:44:46;98819.75;;;13.25;82.06
62548;BME280;48602;45.192;5.722;2023-05-12T05:47:11;98820.28;;;13.32;81.65
62548;BME280;48602;45.192;5.722;2023-05-12T05:49:37;98815.75;;;13.34;80.98
62548;BME280;48602;45.192;5.722;2023-05-12T05:52:02;98810.13;;;13.40;81.11
62548;BME280;48602;45.192;5.722;2023-05-12T05:54:28;98809.59;;;13.49;79.63
62548;BME280;48602;45.192;5.722;2023-05-12T05:56:53;98809.91;;;13.58;79.82
62548;BME280;48602;45.192;5.722;2023-05-12T05:59:18;98811.19;;;13.67;78.05
62548;BME280;48602;45.192;5.722;2023-05-12T06:01:44;98809.13;;;13.72;77.98
62548;BME280;48602;45.192;5.722;2023-05-12T06:04:10;98805.16;;;13.79;78.70
62548;BME280;48602;45.192;5.722;2023-05-12T06:06:35;98808.22;;;13.87;78.82
62548;BME280;48602;45.192;5.722;2023-05-12T06:09:01;98809.94;;;13.88;77.82
62548;BME280;48602;45.192;5.722;2023-05-12T06:11:26;98810.59;;;13.92;78.64
62548;BME280;48602;45.192;5.722;2023-05-12T06:13:51;98806.56;;;14.01;78.87
62548;BME280;48602;45.192;5.722;2023-05-12T06:16:17;98808.88;;;14.07;78.70
62548;BME280;48602;45.192;5.722;2023-05-12T06:18:42;98809.16;;;14.16;78.26
62548;BME280;48602;45.192;5.722;2023-05-12T06:21:07;98804.22;;;14.24;78.04
62548;BME280;48602;45.192;5.722;2023-05-12T06:23:33;98808.16;;;14.33;77.97
62548;BME280;48602;45.192;5.722;2023-05-12T06:25:59;98814.72;;;14.42;77.45
62548;BME280;48602;45.192;5.722;2023-05-12T06:28:24;98806.31;;;14.49;77.82
62548;BME280;48602;45.192;5.722;2023-05-12T06:30:50;98810.38;;;14.55;77.84
62548;BME280;48602;45.192;5.722;2023-05-12T06:33:15;98809.06;;;14.62;77.91
62548;BME280;48602;45.192;5.722;2023-05-12T06:35:40;98810.38;;;14.69;77.51
62548;BME280;48602;45.192;5.722;2023-05-12T06:38:06;98814.25;;;14.78;77.15
62548;BME280;48602;45.192;5.722;2023-05-12T06:40:32;98816.53;;;14.84;77.29
62548;BME280;48602;45.192;5.722;2023-05-12T06:42:57;98807.44;;;14.88;76.63
62548;BME280;48602;45.192;5.722;2023-05-12T06:45:22;98810.75;;;14.91;76.51
62548;BME280;48602;45.192;5.722;2023-05-12T06:47:48;98808.75;;;14.95;76.28
62548;BME280;48602;45.192;5.722;2023-05-12T06:50:14;98818.25;;;14.99;75.78
62548;BME280;48602;45.192;5.722;2023-05-12T06:52:42;98813.78;;;14.99;75.35
62548;BME280;48602;45.192;5.722;2023-05-12T06:55:07;98809.22;;;15.01;75.61
62548;BME280;48602;45.192;5.722;2023-05-12T06:57:33;98814.25;;;15.06;75.00
62548;BME280;48602;45.192;5.722;2023-05-12T06:59:58;98813.09;;;15.10;74.87
62548;BME280;48602;45.192;5.722;2023-05-12T07:02:24;98819.06;;;15.14;75.02
62548;BME280;48602;45.192;5.722;2023-05-12T07:04:50;98819.72;;;15.17;74.85
62548;BME280;48602;45.192;5.722;2023-05-12T07:07:15;98815.00;;;15.22;74.16
62548;BME280;48602;45.192;5.722;2023-05-12T07:09:40;98814.56;;;15.28;74.26
62548;BME280;48602;45.192;5.722;2023-05-12T07:12:07;98816.00;;;15.34;74.51
62548;BME280;48602;45.192;5.722;2023-05-12T07:14:32;98813.81;;;15.41;73.89
62548;BME280;48602;45.192;5.722;2023-05-12T07:16:58;98816.91;;;15.47;73.84
62548;BME280;48602;45.192;5.722;2023-05-12T07:19:23;98816.06;;;15.47;73.41
62548;BME280;48602;45.192;5.722;2023-05-12T07:21:48;98809.03;;;15.46;73.74
62548;BME280;48602;45.192;5.722;2023-05-12T07:24:14;98817.84;;;15.46;73.58
62548;BME280;48602;45.192;5.722;2023-05-12T07:26:40;98807.03;;;15.49;73.45
62548;BME280;48602;45.192;5.722;2023-05-12T07:29:07;98804.66;;;15.59;73.47
62548;BME280;48602;45.192;5.722;2023-05-12T07:31:35;98810.13;;;15.70;72.51
62548;BME280;48602;45.192;5.722;2023-05-12T07:34:01;98810.69;;;15.75;71.01
62548;BME280;48602;45.192;5.722;2023-05-12T07:36:26;98805.56;;;15.72;70.11
62548;BME280;48602;45.192;5.722;2023-05-12T07:38:52;98802.06;;;15.72;69.82
62548;BME280;48602;45.192;5.722;2023-05-12T07:41:18;98796.84;;;15.70;69.00
62548;BME280;48602;45.192;5.722;2023-05-12T07:43:44;98802.06;;;15.72;69.48
62548;BME280;48602;45.192;5.722;2023-05-12T07:46:09;98796.13;;;15.81;69.37
62548;BME280;48602;45.192;5.722;2023-05-12T07:48:35;98800.09;;;15.88;68.78
62548;BME280;48602;45.192;5.722;2023-05-12T07:51:04;98800.28;;;15.85;67.52
62548;BME280;48602;45.192;5.722;2023-05-12T07:53:29;98799.94;;;15.77;67.73
62548;BME280;48602;45.192;5.722;2023-05-12T07:55:55;98801.59;;;15.65;67.93
62548;BME280;48602;45.192;5.722;2023-05-12T07:58:20;98795.09;;;15.56;67.69
62548;BME280;48602;45.192;5.722;2023-05-12T08:00:46;98793.28;;;15.57;68.05
62548;BME280;48602;45.192;5.722;2023-05-12T08:03:12;98788.31;;;15.65;67.16
62548;BME280;48602;45.192;5.722;2023-05-12T08:05:37;98790.00;;;15.66;67.59
62548;BME280;48602;45.192;5.722;2023-05-12T08:08:03;98788.22;;;15.66;67.15
62548;BME280;48602;45.192;5.722;2023-05-12T08:10:28;98793.91;;;15.60;67.00
62548;BME280;48602;45.192;5.722;2023-05-12T08:12:54;98781.13;;;15.53;66.87
62548;BME280;48602;45.192;5.722;2023-05-12T08:15:20;98780.56;;;15.48;66.68
62548;BME280;48602;45.192;5.722;2023-05-12T08:17:46;98789.16;;;15.39;66.89
62548;BME280;48602;45.192;5.722;2023-05-12T08:20:11;98788.69;;;15.32;66.73
62548;BME280;48602;45.192;5.722;2023-05-12T08:22:37;98793.22;;;15.30;67.54
62548;BME280;48602;45.192;5.722;2023-05-12T08:25:04;98791.84;;;15.24;67.03
62548;BME280;48602;45.192;5.722;2023-05-12T08:27:30;98795.94;;;15.16;67.01
62548;BME280;48602;45.192;5.722;2023-05-12T08:29:55;98792.94;;;15.08;68.12
62548;BME280;48602;45.192;5.722;2023-05-12T08:32:21;98785.16;;;15.05;67.96
62548;BME280;48602;45.192;5.722;2023-05-12T08:34:46;98787.22;;;14.99;69.35
62548;BME280;48602;45.192;5.722;2023-05-12T08:37:12;98784.97;;;14.93;69.06
62548;BME280;48602;45.192;5.722;2023-05-12T08:39:37;98790.84;;;14.84;69.66
62548;BME280;48602;45.192;5.722;2023-05-12T08:44:50;98783.00;;;14.83;70.45
62548;BME280;48602;45.192;5.722;2023-05-12T08:47:18;98779.09;;;14.88;70.57
62548;BME280;48602;45.192;5.722;2023-05-12T08:49:48;98777.00;;;14.93;69.68
62548;BME280;48602;45.192;5.722;2023-05-12T08:52:19;98774.34;;;14.93;70.11
62548;BME280;48602;45.192;5.722;2023-05-12T08:54:46;98776.81;;;14.96;69.50
62548;BME280;48602;45.192;5.722;2023-05-12T08:57:12;98778.31;;;15.00;69.45
62548;BME280;48602;45.192;5.722;2023-05-12T08:59:42;98782.50;;;15.05;69.68
62548;BME280;48602;45.192;5.722;2023-05-12T09:02:08;98774.53;;;15.05;70.24
62548;BME280;48602;45.192;5.722;2023-05-12T09:04:34;98779.34;;;15.12;68.71
62548;BME280;48602;45.192;5.722;2023-05-12T09:07:03;98776.59;;;15.14;68.79
62548;BME280;48602;45.192;5.722;2023-05-12T09:09:30;98776.38;;;15.17;69.21
62548;BME280;48602;45.192;5.722;2023-05-12T09:11:59;98779.63;;;15.22;68.23
62548;BME280;48602;45.192;5.722;2023-05-12T09:14:26;98769.53;;;15.27;68.13
62548;BME280;48602;45.192;5.722;2023-05-12T09:17:00;98766.66;;;15.30;67.33
62548;BME280;48602;45.192;5.722;2023-05-12T09:19:25;98767.44;;;15.32;68.29
62548;BME280;48602;45.192;5.722;2023-05-12T09:21:51;98762.78;;;15.35;67.77
62548;BME280;48602;45.192;5.722;2023-05-12T09:24:17;98762.69;;;15.37;68.33
62548;BME280;48602;45.192;5.722;2023-05-12T09:29:14;98771.78;;;15.33;67.17
62548;BME280;48602;45.192;5.722;2023-05-12T09:31:51;98769.13;;;15.33;67.49
62548;BME280;48602;45.192;5.722;2023-05-12T09:34:17;98770.44;;;15.40;66.53
62548;BME280;48602;45.192;5.722;2023-05-12T09:36:42;98772.25;;;15.40;66.19
62548;BME280;48602;45.192;5.722;2023-05-12T09:39:11;98769.91;;;15.35;66.13
62548;BME280;48602;45.192;5.722;2023-05-12T09:41:40;98770.00;;;15.33;66.04
62548;BME280;48602;45.192;5.722;2023-05-12T09:44:07;98770.84;;;15.34;66.62
62548;BME280;48602;45.192;5.722;2023-05-12T09:46:34;98765.53;;;15.34;66.22
62548;BME280;48602;45.192;5.722;2023-05-12T09:49:00;98760.31;;;15.32;65.24
62548;BME280;48602;45.192;5.722;2023-05-12T09:51:26;98773.03;;;15.27;66.50
62548;BME280;48602;45.192;5.722;2023-05-12T09:53:53;98772.59;;;15.21;66.22
62548;BME280;48602;45.192;5.722;2023-05-12T09:56:19;98760.47;;;15.17;66.24
62548;BME280;48602;45.192;5.722;2023-05-12T09:58:47;98759.88;;;15.12;66.68
62548;BME280;48602;45.192;5.722;2023-05-12T10:01:17;98774.22;;;15.09;66.90
62548;BME280;48602;45.192;5.722;2023-05-12T10:03:45;98766.47;;;15.06;66.83
62548;BME280;48602;45.192;5.722;2023-05-12T10:06:19;98764.75;;;15.05;66.94
62548;BME280;48602;45.192;5.722;2023-05-12T10:11:21;98762.09;;;15.05;66.63
62548;BME280;48602;45.192;5.722;2023-05-12T10:13:47;98775.38;;;15.05;67.33
62548;BME280;48602;45.192;5.722;2023-05-12T10:16:13;98770.06;;;15.05;67.82
62548;BME280;48602;45.192;5.722;2023-05-12T10:18:41;98768.19;;;15.07;67.19
62548;BME280;48602;45.192;5.722;2023-05-12T10:21:07;98765.41;;;15.09;67.70
62548;BME280;48602;45.192;5.722;2023-05-12T10:23:38;98762.75;;;15.09;67.91
62548;BME280;48602;45.192;5.722;2023-05-12T10:26:06;98759.22;;;15.08;66.61
62548;BME280;48602;45.192;5.722;2023-05-12T10:28:31;98761.34;;;15.03;67.27
62548;BME280;48602;45.192;5.722;2023-05-12T10:30:58;98763.34;;;14.99;67.19
62548;BME280;48602;45.192;5.722;2023-05-12T10:33:24;98759.94;;;14.97;66.60
62548;BME280;48602;45.192;5.722;2023-05-12T10:35:51;98760.59;;;15.01;66.81
62548;BME280;48602;45.192;5.722;2023-05-12T10:38:17;98764.94;;;15.02;67.18
62548;BME280;48602;45.192;5.722;2023-05-12T10:43:26;98746.09;;;15.07;66.65
62548;BME280;48602;45.192;5.722;2023-05-12T10:46:08;98761.78;;;15.10;66.91
62548;BME280;48602;45.192;5.722;2023-05-12T10:48:35;98748.31;;;15.13;67.22
62548;BME280;48602;45.192;5.722;2023-05-12T10:51:10;98771.94;;;15.17;66.73
62548;BME280;48602;45.192;5.722;2023-05-12T10:53:39;98750.50;;;15.20;67.70
62548;BME280;48602;45.192;5.722;2023-05-12T10:56:05;98737.75;;;15.25;67.15
62548;BME280;48602;45.192;5.722;2023-05-12T10:58:31;98729.50;;;15.30;66.62
62548;BME280;48602;45.192;5.722;2023-05-12T11:01:04;98742.88;;;15.28;66.79
62548;BME280;48602;45.192;5.722;2023-05-12T11:03:30;98752.44;;;15.31;66.47
62548;BME280;48602;45.192;5.722;2023-05-12T11:06:02;98733.28;;;15.26;66.65
62548;BME280;48602;45.192;5.722;2023-05-12T11:08:28;98737.13;;;15.22;67.24
62548;BME280;48602;45.192;5.722;2023-05-12T11:10:55;98748.78;;;15.19;66.87
62548;BME280;48602;45.192;5.722;2023-05-12T11:13:20;98736.56;;;15.17;67.00
62548;BME280;48602;45.192;5.722;2023-05-12T11:15:46;98740.16;;;15.16;67.00
62548;BME280;48602;45.192;5.722;2023-05-12T11:18:11;98738.47;;;15.15;67.33
62548;BME280;48602;45.192;5.722;2023-05-12T11:20:37;98748.13;;;15.16;67.85
62548;BME280;48602;45.192;5.722;2023-05-12T11:23:03;98735.59;;;15.18;67.47
62548;BME280;48602;45.192;5.722;2023-05-12T11:25:28;98737.22;;;15.20;67.37
62548;BME280;48602;45.192;5.722;2023-05-12T11:27:54;98726.50;;;15.22;67.49
62548;BME280;48602;45.192;5.722;2023-05-12T11:30:20;98728.72;;;15.28;66.94
62548;BME280;48602;45.192;5.722;2023-05-12T11:32:45;98725.78;;;15.32;66.97
62548;BME280;48602;45.192;5.722;2023-05-12T11:35:14;98726.25;;;15.39;66.85
62548;BME280;48602;45.192;5.722;2023-05-12T11:37:42;98734.66;;;15.46;66.84
62548;BME280;48602;45.192;5.722;2023-05-12T11:40:15;98721.81;;;15.52;65.94
62548;BME280;48602;45.192;5.722;2023-05-12T11:42:41;98733.75;;;15.59;65.94
62548;BME280;48602;45.192;5.722;2023-05-12T11:45:27;98720.72;;;15.69;64.47
62548;BME280;48602;45.192;5.722;2023-05-12T11:48:05;98715.72;;;15.77;65.08
62548;BME280;48602;45.192;5.722;2023-05-12T11:50:31;98726.91;;;15.82;63.80
62548;BME280;48602;45.192;5.722;2023-05-12T11:52:57;98716.72;;;15.89;63.48
62548;BME280;48602;45.192;5.722;2023-05-12T11:55:23;98716.28;;;15.95;63.10
62548;BME280;48602;45.192;5.722;2023-05-12T11:58:01;98716.63;;;16.03;62.69
62548;BME280;48602;45.192;5.722;2023-05-12T12:00:33;98709.19;;;16.08;63.21
62548;BME280;48602;45.192;5.722;2023-05-12T12:03:12;98721.50;;;16.09;62.25
62548;BME280;48602;45.192;5.722;2023-05-12T12:05:43;98712.34;;;16.13;63.03
62548;BME280;48602;45.192;5.722;2023-05-12T12:08:15;98700.56;;;16.17;63.34
62548;BME280;48602;45.192;5.722;2023-05-12T12:10:45;98697.59;;;16.22;63.67
62548;BME280;48602;45.192;5.722;2023-05-12T12:13:11;98713.19;;;16.26;62.95
62548;BME280;48602;45.192;5.722;2023-05-12T12:15:37;98694.38;;;16.29;62.78
62548;BME280;48602;45.192;5.722;2023-05-12T12:18:02;98691.81;;;16.28;63.41
62548;BME280;48602;45.192;5.722;2023-05-12T12:20:28;98710.34;;;16.29;63.12
62548;BME280;48602;45.192;5.722;2023-05-12T12:22:53;98718.22;;;16.31;62.82
62548;BME280;48602;45.192;5.722;2023-05-12T12:25:20;98707.56;;;16.31;62.87
62548;BME280;48602;45.192;5.722;2023-05-12T12:27:46;98697.78;;;16.31;62.25
62548;BME280;48602;45.192;5.722;2023-05-12T12:30:13;98690.75;;;16.30;62.53
62548;BME280;48602;45.192;5.722;2023-05-12T12:32:39;98695.66;;;16.36;62.12
62548;BME280;48602;45.192;5.722;2023-05-12T12:35:05;98691.72;;;16.42;61.84
62548;BME280;48602;45.192;5.722;2023-05-12T12:37:31;98686.16;;;16.45;62.13
62548;BME280;48602;45.192;5.722;2023-05-12T12:39:57;98685.00;;;16.49;62.12
62548;BME280;48602;45.192;5.722;2023-05-12T12:42:22;98680.84;;;16.58;61.83
62548;BME280;48602;45.192;5.722;2023-05-12T12:44:48;98686.47;;;16.66;61.95
62548;BME280;48602;45.192;5.722;2023-05-12T12:47:16;98691.66;;;16.80;62.39
62548;BME280;48602;45.192;5.722;2023-05-12T12:49:41;98689.31;;;16.88;61.25
62548;BME280;48602;45.192;5.722;2023-05-12T12:52:07;98686.19;;;16.94;60.64
62548;BME280;48602;45.192;5.722;2023-05-12T12:54:33;98682.56;;;16.95;60.48
62548;BME280;48602;45.192;5.722;2023-05-12T12:56:58;98700.13;;;16.98;60.69
62548;BME280;48602;45.192;5.722;2023-05-12T12:59:23;98706.94;;;17.02;59.99
62548;BME280;48602;45.192;5.722;2023-05-12T13:01:49;98698.72;;;17.05;60.61
62548;BME280;48602;45.192;5.722;2023-05-12T13:04:14;98689.03;;;17.04;59.07
62548;BME280;48602;45.192;5.722;2023-05-12T13:06:41;98691.69;;;17.04;59.83